Time;durP1;ratioP1;P1;durP2;ratioP2;P2;SDS_P1;SDS_P2;PMS_P1;PMS_P2;Temp;Humidity;BMP_temperature;BMP_pressure;BME280_temperature;BME280_humidity;BME280_pressure;Samples;Min_cycle;Max_cycle;Signal;HPM_P1;HPM_P2
2022/09/16 00:01:15;;;;;;;;;;;11.20;99.90;;;;;;6256069;22;19965;-78
2022/09/16 00:03:41;;;;;;;;;;;11.20;99.90;;;;;;6256116;22;19985;-78
2022/09/16 00:06:15;;;;;;;;;;;11.20;99.90;;;;;;6281571;22;19918;-78
2022/09/16 00:08:43;;;;;;;;;;;11.30;99.90;;;;;;6255804;22;19915;-77
2022/09/16 00:11:08;;;;;;;;;;;11.40;99.90;;;;;;6255632;22;19911;-77
2022/09/16 00:13:34;;;;;;;;;;;11.50;99.90;;;;;;6281650;22;19988;-78
2022/09/16 00:16:00;;;;;;;;;;;11.50;99.90;;;;;;6256071;22;19934;-79
2022/09/16 00:18:26;;;;;;;;;;;11.60;99.90;;;;;;6281615;22;20312;-78
2022/09/16 00:20:53;;;;;;;;;;;11.70;99.90;;;;;;6308760;22;19911;-76
2022/09/16 00:23:19;;;;;;;;;;;11.70;99.90;;;;;;6255721;22;19922;-77
2022/09/16 00:25:52;;;;;;;;;;;11.60;99.90;;;;;;6281180;22;19946;-76
2022/09/16 00:28:18;;;;;;;;;;;11.60;99.90;;;;;;6255516;22;20326;-77
2022/09/16 00:30:44;;;;;;;;;;;11.60;99.90;;;;;;6281553;22;19911;-78
2022/09/16 00:33:09;;;;;;;;;;;11.60;99.90;;;;;;6255669;22;20313;-76
2022/09/16 00:35:35;;;;;;;;;;;11.60;99.90;;;;;;6281082;22;19964;-77
2022/09/16 00:38:00;;;;;;;;;;;11.60;99.90;;;;;;6230290;22;19911;-77
2022/09/16 00:40:26;;;;;;;;;;;11.60;99.90;;;;;;6280962;22;19915;-76
2022/09/16 00:42:51;;;;;;;;;;;11.60;99.90;;;;;;6281320;22;19915;-79
2022/09/16 00:45:19;;;;;;;;;;;11.60;99.90;;;;;;6255992;22;19919;-77
2022/09/16 00:47:51;;;;;;;;;;;11.70;99.90;;;;;;6281056;22;19962;-77
2022/09/16 00:50:22;;;;;;;;;;;11.60;99.90;;;;;;6281204;22;19950;-76
2022/09/16 00:52:48;;;;;;;;;;;11.60;99.90;;;;;;6256442;22;19968;-77
2022/09/16 00:55:17;;;;;;;;;;;11.60;99.90;;;;;;6280951;22;19915;-76
2022/09/16 00:57:43;;;;;;;;;;;11.60;99.90;;;;;;6281074;22;19926;-79
2022/09/16 01:00:12;;;;;;;;;;;11.60;99.90;;;;;;6255959;22;19915;-76
2022/09/16 01:02:39;;;;;;;;;;;11.60;99.90;;;;;;6280770;22;20240;-76
2022/09/16 01:05:06;;;;;;;;;;;11.60;99.90;;;;;;6280088;22;19965;-78
2022/09/16 01:07:36;;;;;;;;;;;11.60;99.90;;;;;;6280157;22;20233;-77
2022/09/16 01:10:02;;;;;;;;;;;11.60;99.90;;;;;;6254672;22;19911;-78
2022/09/16 01:12:29;;;;;;;;;;;11.50;99.90;;;;;;6281136;22;19921;-77
2022/09/16 01:14:57;;;;;;;;;;;11.50;99.90;;;;;;6255497;22;19914;-76
2022/09/16 01:17:40;;;;;;;;;;;11.50;99.90;;;;;;6280969;22;20317;-78
2022/09/16 01:20:25;;;;;;;;;;;11.40;99.90;;;;;;6255485;22;19915;-77
2022/09/16 01:23:13;;;;;;;;;;;11.50;99.90;;;;;;6255999;22;19992;-76
2022/09/16 01:25:58;;;;;;;;;;;11.40;99.90;;;;;;6282008;22;20242;-75
2022/09/16 01:28:42;;;;;;;;;;;11.40;99.90;;;;;;6281212;22;20234;-77
2022/09/16 01:31:28;;;;;;;;;;;11.30;99.90;;;;;;6256464;22;20351;-75
2022/09/16 01:33:58;;;;;;;;;;;11.40;99.90;;;;;;6310217;22;19910;-78
2022/09/16 01:36:23;;;;;;;;;;;11.40;99.90;;;;;;6310299;22;19903;-76
2022/09/16 01:39:02;;;;;;;;;;;11.50;99.90;;;;;;6283775;22;19910;-77
2022/09/16 01:41:48;;;;;;;;;;;11.60;99.90;;;;;;6306562;22;19990;-76
2022/09/16 01:44:20;;;;;;;;;;;11.60;99.90;;;;;;6255717;22;19972;-78
2022/09/16 01:47:10;;;;;;;;;;;11.60;99.90;;;;;;6283032;22;19915;-77
2022/09/16 01:49:36;;;;;;;;;;;11.60;99.90;;;;;;6282911;22;19954;-76
2022/09/16 01:52:18;;;;;;;;;;;11.50;99.90;;;;;;6283041;22;19914;-75
2022/09/16 01:54:53;;;;;;;;;;;11.50;99.90;;;;;;6282944;22;19914;-76
2022/09/16 01:57:32;;;;;;;;;;;11.40;99.90;;;;;;6257225;22;19942;-75
2022/09/16 01:59:58;;;;;;;;;;;11.20;99.90;;;;;;6257162;22;19919;-77
2022/09/16 02:02:28;;;;;;;;;;;11.30;99.90;;;;;;6282509;22;19911;-77
2022/09/16 02:04:55;;;;;;;;;;;11.20;99.90;;;;;;6282529;22;19911;-75
2022/09/16 02:07:22;;;;;;;;;;;11.20;99.90;;;;;;6256805;22;19911;-78
2022/09/16 02:09:53;;;;;;;;;;;11.20;99.90;;;;;;6257181;22;20263;-77
2022/09/16 02:12:22;;;;;;;;;;;11.20;99.90;;;;;;6282946;22;19915;-77
2022/09/16 02:14:48;;;;;;;;;;;11.10;99.90;;;;;;6282834;22;19950;-76
2022/09/16 02:17:16;;;;;;;;;;;11.10;99.90;;;;;;6257502;22;19915;-77
2022/09/16 02:19:44;;;;;;;;;;;11.10;99.90;;;;;;6256745;22;19969;-76
2022/09/16 02:22:12;;;;;;;;;;;11.00;99.90;;;;;;6256786;22;20233;-78
2022/09/16 02:24:40;;;;;;;;;;;11.00;99.90;;;;;;6256080;22;19911;-76
2022/09/16 02:27:08;;;;;;;;;;;11.00;99.90;;;;;;6255491;22;19985;-75
2022/09/16 02:29:46;;;;;;;;;;;11.00;99.90;;;;;;6281925;22;20314;-77
2022/09/16 02:32:12;;;;;;;;;;;11.10;99.90;;;;;;6282550;22;19911;-77
2022/09/16 02:34:43;;;;;;;;;;;11.20;99.90;;;;;;6256605;22;20309;-77
2022/09/16 02:37:21;;;;;;;;;;;11.10;99.90;;;;;;6251024;22;20337;-79
2022/09/16 02:39:48;;;;;;;;;;;11.00;99.90;;;;;;6276944;22;20383;-78
2022/09/16 02:42:14;;;;;;;;;;;11.10;99.90;;;;;;6251425;22;20278;-80
2022/09/16 02:44:40;;;;;;;;;;;11.00;99.90;;;;;;6251834;22;19946;-78
2022/09/16 02:47:09;;;;;;;;;;;10.90;99.90;;;;;;6251428;22;19911;-78
2022/09/16 02:49:43;;;;;;;;;;;10.80;99.90;;;;;;6251690;22;20370;-79
2022/09/16 02:52:27;;;;;;;;;;;10.80;99.90;;;;;;6251798;22;19911;-78
2022/09/16 02:55:07;;;;;;;;;;;10.70;99.90;;;;;;6252291;22;19990;-78
2022/09/16 02:57:33;;;;;;;;;;;10.70;99.90;;;;;;6251642;22;20382;-77
2022/09/16 02:59:58;;;;;;;;;;;10.60;99.90;;;;;;6251435;22;19915;-78
2022/09/16 03:02:24;;;;;;;;;;;10.60;99.90;;;;;;6251394;22;19957;-79
2022/09/16 03:04:55;;;;;;;;;;;10.60;99.90;;;;;;6277042;22;19990;-78
2022/09/16 03:07:28;;;;;;;;;;;10.70;99.90;;;;;;6252198;22;19911;-77
2022/09/16 03:09:54;;;;;;;;;;;10.80;99.90;;;;;;6250999;22;19911;-77
2022/09/16 03:12:32;;;;;;;;;;;;;;;;;;;;;
2022/09/16 03:14:58;;;;;;;;;;;10.90;99.90;;;;;;6276724;22;19911;-79
2022/09/16 03:17:33;;;;;;;;;;;10.90;99.90;;;;;;6251022;22;19986;-78
2022/09/16 03:20:06;;;;;;;;;;;10.80;99.90;;;;;;6251076;22;19981;-79
2022/09/16 03:22:50;;;;;;;;;;;10.80;99.90;;;;;;6251321;22;19916;-77
2022/09/16 03:25:28;;;;;;;;;;;10.80;99.90;;;;;;6250864;22;19911;-75
2022/09/16 03:27:54;;;;;;;;;;;10.80;99.90;;;;;;6251009;22;20313;-75
2022/09/16 03:30:20;;;;;;;;;;;10.80;99.90;;;;;;6251208;22;19911;-75
2022/09/16 03:32:53;;;;;;;;;;;10.80;99.90;;;;;;6251282;22;19915;-75
2022/09/16 03:35:25;;;;;;;;;;;10.80;99.90;;;;;;6276668;22;19961;-75
2022/09/16 03:37:53;;;;;;;;;;;10.80;99.90;;;;;;6250973;22;20251;-76
2022/09/16 03:40:19;;;;;;;;;;;10.90;99.90;;;;;;6250836;22;19915;-76
2022/09/16 03:42:44;;;;;;;;;;;10.90;99.90;;;;;;6250410;22;19990;-74
2022/09/16 03:45:15;;;;;;;;;;;10.90;99.90;;;;;;6276276;22;19918;-75
2022/09/16 03:47:41;;;;;;;;;;;11.00;99.90;;;;;;6250668;22;19912;-75
2022/09/16 03:50:09;;;;;;;;;;;11.00;99.90;;;;;;6251184;22;19936;-78
2022/09/16 03:52:35;;;;;;;;;;;11.00;99.90;;;;;;6276309;22;19986;-77
2022/09/16 03:55:00;;;;;;;;;;;10.90;99.90;;;;;;6250692;22;19947;-76
2022/09/16 03:57:29;;;;;;;;;;;10.90;99.90;;;;;;6250498;22;19912;-75
2022/09/16 03:59:55;;;;;;;;;;;10.90;99.90;;;;;;6276548;22;19981;-76
2022/09/16 04:02:20;;;;;;;;;;;10.80;99.90;;;;;;6250948;22;20314;-76
2022/09/16 04:04:46;;;;;;;;;;;10.80;99.90;;;;;;6276854;22;19918;-74
2022/09/16 04:07:14;;;;;;;;;;;10.80;99.90;;;;;;6276321;22;20357;-78
2022/09/16 04:09:41;;;;;;;;;;;10.70;99.90;;;;;;6250833;22;19918;-74
2022/09/16 04:12:07;;;;;;;;;;;10.70;99.90;;;;;;6250956;22;20363;-76
2022/09/16 04:14:33;;;;;;;;;;;10.60;99.90;;;;;;6276109;22;20328;-76
2022/09/16 04:16:59;;;;;;;;;;;10.60;99.90;;;;;;6276487;22;19934;-76
2022/09/16 04:19:25;;;;;;;;;;;10.50;99.90;;;;;;6250628;22;20306;-76
2022/09/16 04:21:50;;;;;;;;;;;10.50;99.90;;;;;;6250786;22;19911;-77
2022/09/16 04:24:16;;;;;;;;;;;10.40;99.90;;;;;;6250902;22;19957;-77
2022/09/16 04:26:42;;;;;;;;;;;10.40;99.90;;;;;;6250304;22;19922;-77
2022/09/16 04:29:09;;;;;;;;;;;10.40;99.90;;;;;;6250334;22;20438;-77
2022/09/16 04:31:35;;;;;;;;;;;10.40;99.90;;;;;;6250703;22;20203;-75
2022/09/16 04:34:03;;;;;;;;;;;10.30;99.90;;;;;;6251340;22;19917;-76
2022/09/16 04:36:29;;;;;;;;;;;9.90;99.90;;;;;;6250787;22;19961;-76
2022/09/16 04:38:55;;;;;;;;;;;10.40;99.90;;;;;;6255314;22;19996;-75
2022/09/16 04:41:22;;;;;;;;;;;10.30;99.90;;;;;;6255712;22;19915;-76
2022/09/16 04:43:51;;;;;;;;;;;10.40;99.90;;;;;;6281434;22;19915;-75
2022/09/16 04:46:17;;;;;;;;;;;10.40;99.90;;;;;;6280867;22;19946;-75
2022/09/16 04:48:45;;;;;;;;;;;10.50;99.90;;;;;;6255856;22;19918;-76
2022/09/16 04:51:11;;;;;;;;;;;10.70;99.90;;;;;;6255377;22;19911;-74
2022/09/16 04:53:38;;;;;;;;;;;10.70;99.90;;;;;;6255727;22;20475;-77
2022/09/16 04:56:05;;;;;;;;;;;10.80;99.90;;;;;;6255346;22;19911;-77
2022/09/16 04:58:30;;;;;;;;;;;10.80;99.90;;;;;;6280776;22;19910;-77
2022/09/16 05:01:01;;;;;;;;;;;10.90;99.90;;;;;;6280904;22;19961;-76
2022/09/16 05:03:27;;;;;;;;;;;10.90;99.90;;;;;;6254918;22;20376;-76
2022/09/16 05:05:53;;;;;;;;;;;11.10;99.90;;;;;;6255621;22;19953;-78
2022/09/16 05:08:18;;;;;;;;;;;11.20;99.90;;;;;;6280802;22;19910;-76
2022/09/16 05:10:45;;;;;;;;;;;11.20;99.90;;;;;;6255285;22;20386;-77
2022/09/16 05:13:10;;;;;;;;;;;11.20;99.90;;;;;;6255201;22;19911;-76
2022/09/16 05:15:38;;;;;;;;;;;11.10;99.90;;;;;;6281306;22;19986;-79
2022/09/16 05:18:07;;;;;;;;;;;11.10;99.90;;;;;;6230887;22;19911;-78
2022/09/16 05:20:32;;;;;;;;;;;11.10;99.90;;;;;;6281750;22;19915;-78
2022/09/16 05:22:58;;;;;;;;;;;11.00;99.90;;;;;;6257577;22;19918;-77
2022/09/16 05:25:24;;;;;;;;;;;11.20;99.90;;;;;;6257327;22;19950;-78
2022/09/16 05:27:50;;;;;;;;;;;11.00;99.90;;;;;;6257665;22;19911;-77
2022/09/16 05:30:16;;;;;;;;;;;11.00;99.90;;;;;;6257577;22;19911;-77
2022/09/16 05:32:41;;;;;;;;;;;10.90;99.90;;;;;;6283241;22;19937;-78
2022/09/16 05:35:09;;;;;;;;;;;11.00;99.90;;;;;;6283085;22;20321;-78
2022/09/16 05:37:35;;;;;;;;;;;10.90;99.90;;;;;;6256994;22;19921;-76
2022/09/16 05:40:01;;;;;;;;;;;11.00;99.90;;;;;;6257192;22;20001;-75
2022/09/16 05:42:27;;;;;;;;;;;11.00;99.90;;;;;;6283032;22;19950;-78
2022/09/16 05:44:52;;;;;;;;;;;11.00;99.90;;;;;;6283064;22;20040;-77
2022/09/16 05:47:18;;;;;;;;;;;11.00;99.90;;;;;;6257530;22;19911;-78
2022/09/16 05:49:44;;;;;;;;;;;11.10;99.90;;;;;;6256996;22;19911;-76
2022/09/16 05:52:10;;;;;;;;;;;11.10;99.90;;;;;;6283028;22;19918;-78
2022/09/16 05:54:38;;;;;;;;;;;11.20;99.90;;;;;;6257322;22;19911;-76
2022/09/16 05:57:03;;;;;;;;;;;11.30;99.90;;;;;;6257396;22;20268;-76
2022/09/16 05:59:29;;;;;;;;;;;11.20;99.90;;;;;;6256888;22;19989;-77
2022/09/16 06:01:55;;;;;;;;;;;11.50;99.90;;;;;;6257316;22;19911;-76
2022/09/16 06:04:21;;;;;;;;;;;11.50;99.90;;;;;;6282871;22;19918;-77
2022/09/16 06:06:46;;;;;;;;;;;11.50;99.90;;;;;;6256969;22;19915;-77
2022/09/16 06:09:15;;;;;;;;;;;11.50;99.90;;;;;;6257146;22;19918;-78
2022/09/16 06:11:46;;;;;;;;;;;11.40;99.90;;;;;;6257790;22;20199;-76
2022/09/16 06:14:12;;;;;;;;;;;11.60;99.90;;;;;;6282745;22;19911;-77
2022/09/16 06:16:38;;;;;;;;;;;11.50;99.90;;;;;;6282626;22;20028;-77
2022/09/16 06:19:09;;;;;;;;;;;11.60;99.90;;;;;;6257085;22;19957;-77
2022/09/16 06:21:35;;;;;;;;;;;11.60;99.90;;;;;;6256839;22;19922;-77
2022/09/16 06:24:02;;;;;;;;;;;11.70;99.90;;;;;;6282545;22;19977;-78
2022/09/16 06:26:28;;;;;;;;;;;11.90;99.90;;;;;;6256948;22;19921;-77
2022/09/16 06:28:54;;;;;;;;;;;12.10;99.90;;;;;;6256983;22;19950;-77
2022/09/16 06:31:21;;;;;;;;;;;12.20;99.90;;;;;;6281856;22;19915;-78
2022/09/16 06:33:49;;;;;;;;;;;12.30;99.90;;;;;;6257241;22;20356;-77
2022/09/16 06:36:21;;;;;;;;;;;12.40;99.90;;;;;;6256981;22;19918;-76
2022/09/16 06:38:47;;;;;;;;;;;12.40;99.90;;;;;;6256941;22;19981;-75
2022/09/16 06:41:13;;;;;;;;;;;12.50;99.90;;;;;;6256873;22;19950;-78
2022/09/16 06:43:39;;;;;;;;;;;12.60;99.90;;;;;;6282503;22;19910;-75
2022/09/16 06:46:12;;;;;;;;;;;12.60;99.90;;;;;;6257052;22;19985;-77
2022/09/16 06:48:39;;;;;;;;;;;12.60;99.90;;;;;;6257016;22;19953;-77
2022/09/16 06:51:06;;;;;;;;;;;12.50;99.90;;;;;;6256373;22;19960;-76
2022/09/16 06:53:31;;;;;;;;;;;12.50;99.90;;;;;;6257003;22;19946;-77
2022/09/16 06:56:04;;;;;;;;;;;12.40;99.90;;;;;;6257158;22;19922;-77
2022/09/16 06:58:31;;;;;;;;;;;12.50;99.90;;;;;;6256814;22;19918;-75
2022/09/16 07:00:56;;;;;;;;;;;12.60;99.90;;;;;;6256361;22;19915;-78
2022/09/16 07:03:22;;;;;;;;;;;12.80;99.90;;;;;;6257028;22;20313;-78
2022/09/16 07:05:59;;;;;;;;;;;13.10;99.90;;;;;;6263565;22;19933;-76
2022/09/16 07:08:24;;;;;;;;;;;13.40;99.90;;;;;;6285032;22;19954;-77
2022/09/16 07:10:57;;;;;;;;;;;13.70;99.90;;;;;;6284800;22;19926;-78
2022/09/16 07:13:23;;;;;;;;;;;14.00;99.90;;;;;;6285365;22;19903;-77
2022/09/16 07:15:48;;;;;;;;;;;14.00;99.90;;;;;;6285473;22;19903;-79
2022/09/16 07:18:14;;;;;;;;;;;14.20;99.90;;;;;;6258522;22;19980;-78
2022/09/16 07:20:39;;;;;;;;;;;14.30;99.90;;;;;;6256324;22;19915;-77
2022/09/16 07:23:05;;;;;;;;;;;14.20;99.90;;;;;;6256810;22;20316;-78
2022/09/16 07:25:31;;;;;;;;;;;14.10;99.90;;;;;;6256100;22;19918;-76
2022/09/16 07:27:56;;;;;;;;;;;14.10;99.90;;;;;;6256447;22;19915;-77
2022/09/16 07:30:22;;;;;;;;;;;14.00;99.90;;;;;;6256104;22;19911;-73
2022/09/16 07:32:47;;;;;;;;;;;13.90;99.90;;;;;;6255889;22;20347;-77
2022/09/16 07:35:13;;;;;;;;;;;13.90;99.90;;;;;;6281935;22;19911;-74
2022/09/16 07:37:38;;;;;;;;;;;13.70;99.90;;;;;;6255647;22;19922;-76
2022/09/16 07:40:04;;;;;;;;;;;13.60;99.90;;;;;;6255447;22;19921;-75
2022/09/16 07:42:30;;;;;;;;;;;13.60;99.90;;;;;;6281194;22;19960;-73
2022/09/16 07:44:56;;;;;;;;;;;13.60;99.90;;;;;;6255702;22;19915;-76
2022/09/16 07:47:22;;;;;;;;;;;13.60;99.90;;;;;;6255661;22;19917;-77
2022/09/16 07:49:50;;;;;;;;;;;13.50;99.90;;;;;;6256299;22;20310;-74
2022/09/16 07:52:18;;;;;;;;;;;13.70;99.90;;;;;;6281812;22;19951;-77
2022/09/16 07:54:43;;;;;;;;;;;13.90;99.90;;;;;;6281357;22;19993;-75
2022/09/16 07:57:09;;;;;;;;;;;14.10;99.90;;;;;;6281345;22;19910;-74
2022/09/16 07:59:34;;;;;;;;;;;14.30;99.90;;;;;;6281454;22;19918;-75
2022/09/16 08:02:00;;;;;;;;;;;14.50;99.90;;;;;;6281810;22;19976;-72
2022/09/16 08:04:26;;;;;;;;;;;14.70;99.90;;;;;;6309130;22;19958;-76
2022/09/16 08:06:51;;;;;;;;;;;14.90;99.90;;;;;;6281708;22;19911;-75
2022/09/16 08:09:21;;;;;;;;;;;15.10;99.90;;;;;;6255694;22;19950;-74
2022/09/16 08:11:47;;;;;;;;;;;15.10;99.90;;;;;;6255933;22;19962;-73
2022/09/16 08:14:13;;;;;;;;;;;15.20;99.90;;;;;;6231041;22;19972;-75
2022/09/16 08:16:38;;;;;;;;;;;15.20;99.90;;;;;;6255650;22;20215;-75
2022/09/16 08:19:04;;;;;;;;;;;15.40;99.90;;;;;;6281194;22;19947;-74
2022/09/16 08:21:29;;;;;;;;;;;15.50;99.90;;;;;;6255561;22;19915;-76
2022/09/16 08:23:56;;;;;;;;;;;15.60;99.90;;;;;;6281524;22;20331;-75
2022/09/16 08:26:22;;;;;;;;;;;15.60;99.90;;;;;;6281320;22;19942;-75
2022/09/16 08:28:48;;;;;;;;;;;15.70;99.90;;;;;;6255404;22;19921;-77
2022/09/16 08:31:13;;;;;;;;;;;15.80;99.90;;;;;;6281803;22;19922;-75
2022/09/16 08:33:40;;;;;;;;;;;15.80;99.90;;;;;;6256208;22;19915;-74
2022/09/16 08:36:10;;;;;;;;;;;15.70;99.90;;;;;;6255900;22;19950;-76
2022/09/16 08:38:35;;;;;;;;;;;15.90;99.90;;;;;;6255455;22;19915;-76
2022/09/16 08:41:07;;;;;;;;;;;16.00;99.90;;;;;;6255404;22;19961;-74
2022/09/16 08:43:43;;;;;;;;;;;16.00;99.90;;;;;;6281318;22;19918;-74
2022/09/16 08:46:15;;;;;;;;;;;16.10;99.90;;;;;;6281437;22;19990;-75
2022/09/16 08:48:47;;;;;;;;;;;16.20;99.90;;;;;;6281194;22;19937;-73
2022/09/16 08:51:14;;;;;;;;;;;16.30;99.90;;;;;;6255970;22;19915;-76
2022/09/16 08:53:40;;;;;;;;;;;16.40;99.90;;;;;;6281714;22;20313;-75
2022/09/16 08:56:09;;;;;;;;;;;16.50;99.90;;;;;;6281385;22;19941;-75
2022/09/16 08:58:40;;;;;;;;;;;16.60;99.90;;;;;;6255324;22;20372;-74
2022/09/16 09:01:19;;;;;;;;;;;16.70;99.90;;;;;;6280616;22;19922;-75
2022/09/16 09:03:46;;;;;;;;;;;16.90;99.90;;;;;;6280751;22;20214;-74
2022/09/16 09:06:33;;;;;;;;;;;16.80;99.90;;;;;;6255370;22;19915;-75
2022/09/16 09:09:14;;;;;;;;;;;16.70;99.90;;;;;;6281093;22;19911;-75
2022/09/16 09:11:55;;;;;;;;;;;16.80;99.90;;;;;;6308289;22;19917;-75
2022/09/16 09:14:36;;;;;;;;;;;16.90;99.90;;;;;;6255684;22;19911;-74
2022/09/16 09:17:22;;;;;;;;;;;16.50;99.90;;;;;;6280854;22;19985;-74
2022/09/16 09:19:48;;;;;;;;;;;15.90;99.90;;;;;;6279625;22;19919;-74
2022/09/16 09:22:32;;;;;;;;;;;15.40;99.90;;;;;;6255743;22;20366;-74
2022/09/16 09:25:13;;;;;;;;;;;15.20;99.90;;;;;;6308435;22;19922;-75
2022/09/16 09:27:56;;;;;;;;;;;15.10;99.90;;;;;;6280703;22;19938;-74
2022/09/16 09:30:24;;;;;;;;;;;15.30;99.90;;;;;;6254672;22;19915;-72
2022/09/16 09:32:49;;;;;;;;;;;15.60;99.90;;;;;;6280223;22;20400;-73
2022/09/16 09:35:21;;;;;;;;;;;15.90;99.90;;;;;;6280329;22;19954;-74
2022/09/16 09:38:05;;;;;;;;;;;16.00;99.90;;;;;;6249381;22;19915;-72
2022/09/16 09:40:43;;;;;;;;;;;16.10;99.90;;;;;;6276101;22;19915;-75
2022/09/16 09:43:30;;;;;;;;;;;16.20;99.90;;;;;;6275970;22;20322;-74
2022/09/16 09:46:15;;;;;;;;;;;16.40;99.90;;;;;;6275549;22;19915;-73
2022/09/16 09:48:43;;;;;;;;;;;16.40;99.90;;;;;;6250235;22;19915;-73
2022/09/16 09:51:17;;;;;;;;;;;16.50;99.90;;;;;;6275925;22;20240;-73
2022/09/16 09:53:45;;;;;;;;;;;16.70;99.90;;;;;;6275564;22;19972;-72
2022/09/16 09:56:23;;;;;;;;;;;16.60;99.90;;;;;;6249976;22;19922;-76
2022/09/16 09:58:57;;;;;;;;;;;16.70;99.90;;;;;;6275714;22;19915;-73
2022/09/16 10:01:23;;;;;;;;;;;17.00;99.90;;;;;;6250399;22;19922;-74
2022/09/16 10:03:50;;;;;;;;;;;16.80;99.90;;;;;;6250416;22;19947;-74
2022/09/16 10:06:16;;;;;;;;;;;16.50;99.90;;;;;;6276584;22;20276;-74
2022/09/16 10:08:47;;;;;;;;;;;16.40;99.90;;;;;;6277526;22;19919;-73
2022/09/16 10:11:17;;;;;;;;;;;16.50;99.90;;;;;;6277542;22;19922;-74
2022/09/16 10:13:50;;;;;;;;;;;16.50;99.90;;;;;;6252023;22;19915;-75
2022/09/16 10:16:19;;;;;;;;;;;16.60;99.90;;;;;;6279306;22;19953;-74
2022/09/16 10:18:52;;;;;;;;;;;16.70;99.90;;;;;;6276918;22;19915;-73
2022/09/16 10:21:18;;;;;;;;;;;16.90;99.90;;;;;;6276968;22;20290;-73
2022/09/16 10:23:56;;;;;;;;;;;17.00;99.90;;;;;;6278080;22;19916;-75
2022/09/16 10:26:23;;;;;;;;;;;17.10;99.90;;;;;;6251708;22;19923;-74
2022/09/16 10:28:56;;;;;;;;;;;17.10;99.90;;;;;;6277264;22;20353;-76
2022/09/16 10:31:23;;;;;;;;;;;17.20;99.90;;;;;;6251777;22;20401;-75
2022/09/16 10:33:49;;;;;;;;;;;17.40;99.90;;;;;;6277141;22;20348;-71
2022/09/16 10:36:21;;;;;;;;;;;17.60;99.90;;;;;;6277137;22;19911;-75
2022/09/16 10:38:57;;;;;;;;;;;17.60;99.90;;;;;;6282410;22;19945;-73
2022/09/16 10:41:24;;;;;;;;;;;17.30;99.90;;;;;;6288372;22;19921;-73
2022/09/16 10:44:01;;;;;;;;;;;17.40;99.90;;;;;;6257607;22;19915;-74
2022/09/16 10:46:27;;;;;;;;;;;17.50;99.90;;;;;;6256656;22;19964;-73
2022/09/16 10:48:54;;;;;;;;;;;17.50;99.90;;;;;;6302488;22;19910;-74
2022/09/16 10:51:24;;;;;;;;;;;17.60;99.90;;;;;;6310889;22;19937;-77
2022/09/16 10:53:56;;;;;;;;;;;17.70;99.90;;;;;;6311253;22;19919;-75
2022/09/16 10:56:28;;;;;;;;;;;17.60;99.90;;;;;;6285489;22;19938;-71
2022/09/16 10:59:04;;;;;;;;;;;17.50;99.90;;;;;;6290079;22;20364;-72
2022/09/16 11:01:56;;;;;;;;;;;17.60;99.90;;;;;;6278606;22;19957;-77
2022/09/16 11:04:27;;;;;;;;;;;17.70;99.90;;;;;;6254876;22;19922;-76
2022/09/16 11:07:04;;;;;;;;;;;17.70;99.90;;;;;;6280398;22;19915;-78
2022/09/16 11:09:45;;;;;;;;;;;17.60;99.90;;;;;;6254690;22;19918;-77
2022/09/16 11:12:29;;;;;;;;;;;17.20;99.90;;;;;;6254968;22;19914;-77
2022/09/16 11:15:11;;;;;;;;;;;16.80;99.90;;;;;;6280827;22;19939;-72
2022/09/16 11:17:40;;;;;;;;;;;16.70;99.90;;;;;;6254422;22;19980;-72
2022/09/16 11:20:41;;;;;;;;;;;16.80;99.90;;;;;;6253713;22;19950;-74
2022/09/16 11:23:13;;;;;;;;;;;17.10;99.90;;;;;;6174801;22;19926;-77
2022/09/16 11:29:09;;;;;;;;;;;17.20;99.90;;;;;;6278454;22;20260;-80
2022/09/16 11:35:22;;;;;;;;;;;;;;;;;;;;;
2022/09/16 11:41:47;;;;;;;;;;;;;;;;;;;;;
2022/09/16 11:44:39;;;;;;;;;;;17.30;99.90;;;;;;6278730;22;19911;-78
2022/09/16 11:47:24;;;;;;;;;;;17.50;99.90;;;;;;6208578;22;20264;-77
2022/09/16 11:50:07;;;;;;;;;;;17.30;99.90;;;;;;6253223;22;19960;-77
2022/09/16 11:52:54;;;;;;;;;;;17.30;99.90;;;;;;6254317;22;20268;-80
2022/09/16 11:55:25;;;;;;;;;;;17.20;99.90;;;;;;6254835;22;19918;-78
2022/09/16 11:58:05;;;;;;;;;;;17.20;99.90;;;;;;6254708;22;19911;-79
2022/09/16 12:00:42;;;;;;;;;;;17.50;99.90;;;;;;6254672;22;19941;-78
2022/09/16 12:03:42;;;;;;;;;;;;;;;;;;;;;
2022/09/16 12:07:07;;;;;;;;;;;17.30;99.90;;;;;;6298934;22;19926;-79
2022/09/16 12:10:11;;;;;;;;;;;17.30;99.90;;;;;;6105765;23;19912;-79
2022/09/16 12:12:53;;;;;;;;;;;17.20;99.90;;;;;;6134600;23;20382;-79
2022/09/16 12:15:50;;;;;;;;;;;17.30;99.90;;;;;;6261415;22;19990;-75
2022/09/16 12:18:29;;;;;;;;;;;17.30;99.90;;;;;;6218818;22;19912;-77
2022/09/16 12:21:15;;;;;;;;;;;17.20;99.90;;;;;;6269916;22;19966;-76
2022/09/16 12:23:52;;;;;;;;;;;17.20;99.90;;;;;;6218681;23;20296;-76
2022/09/16 12:26:24;;;;;;;;;;;17.10;99.90;;;;;;6269641;22;19989;-80
2022/09/16 12:33:19;;;;;;;;;;;;;;;;;;;;;
2022/09/16 12:39:50;;;;;;;;;;;;;;;;;;;;;
2022/09/16 13:21:04;;;;;;;;;;;17.10;99.90;;;;;;6215436;22;19915;-75
2022/09/16 13:23:41;;;;;;;;;;;17.10;99.90;;;;;;6183507;23;19967;-77
2022/09/16 13:26:08;;;;;;;;;;;17.00;99.90;;;;;;6185930;23;20318;-79
2022/09/16 13:28:38;;;;;;;;;;;17.00;99.90;;;;;;6266855;22;19976;-76
2022/09/16 13:31:15;;;;;;;;;;;16.90;99.90;;;;;;6272788;22;19990;-77
2022/09/16 13:33:42;;;;;;;;;;;16.90;99.90;;;;;;6247249;22;20230;-78
2022/09/16 13:36:21;;;;;;;;;;;16.90;99.90;;;;;;6272276;22;20207;-77
2022/09/16 13:38:51;;;;;;;;;;;16.90;99.90;;;;;;6272601;22;19918;-76
2022/09/16 13:41:35;;;;;;;;;;;16.90;99.90;;;;;;6249506;22;20310;-76
2022/09/16 13:44:20;;;;;;;;;;;17.00;99.90;;;;;;6275629;22;19912;-77
2022/09/16 13:50:45;;;;;;;;;;;17.40;99.90;;;;;;6182147;23;19975;-77
2022/09/16 13:53:53;;;;;;;;;;;17.50;99.90;;;;;;6112805;22;19913;-80
2022/09/16 13:56:38;;;;;;;;;;;17.00;99.90;;;;;;6219551;22;20004;-80
2022/09/16 14:02:44;;;;;;;;;;;16.30;99.90;;;;;;6275955;22;19917;-79
2022/09/16 14:05:12;;;;;;;;;;;16.00;99.90;;;;;;6249333;22;20381;-79
2022/09/16 14:08:01;;;;;;;;;;;16.00;99.90;;;;;;6249323;22;19994;-78
2022/09/16 14:10:59;;;;;;;;;;;16.10;99.90;;;;;;6223854;22;19918;-78
2022/09/16 14:13:31;;;;;;;;;;;15.90;99.90;;;;;;6222888;22;20333;-80
2022/09/16 14:15:58;;;;;;;;;;;15.80;99.90;;;;;;6222864;22;19918;-78
2022/09/16 14:18:28;;;;;;;;;;;15.60;99.90;;;;;;6247390;22;19926;-78
2022/09/16 14:20:58;;;;;;;;;;;15.50;99.90;;;;;;6230559;22;20372;-78
2022/09/16 14:23:24;;;;;;;;;;;15.50;99.90;;;;;;6275465;22;19937;-78
2022/09/16 14:25:50;;;;;;;;;;;15.30;99.90;;;;;;6250564;22;19915;-78
2022/09/16 14:28:16;;;;;;;;;;;15.20;99.90;;;;;;6249593;22;19918;-78
2022/09/16 14:30:53;;;;;;;;;;;15.10;99.90;;;;;;6249600;22;19915;-77
2022/09/16 14:33:24;;;;;;;;;;;14.80;99.90;;;;;;6274951;22;19912;-75
2022/09/16 14:36:00;;;;;;;;;;;14.50;99.90;;;;;;6275639;22;19911;-77
2022/09/16 14:38:30;;;;;;;;;;;14.40;99.90;;;;;;6280212;22;19922;-78
2022/09/16 14:40:58;;;;;;;;;;;14.30;99.90;;;;;;6255489;22;19915;-80
2022/09/16 14:43:24;;;;;;;;;;;14.30;99.90;;;;;;6278508;22;19915;-78
2022/09/16 14:45:57;;;;;;;;;;;14.20;99.90;;;;;;6281049;22;19977;-75
2022/09/16 14:51:28;;;;;;;;;;;13.80;99.90;;;;;;6236266;22;19939;-78
2022/09/16 14:53:55;;;;;;;;;;;13.60;99.90;;;;;;6255230;22;19910;-80
2022/09/16 14:56:23;;;;;;;;;;;13.50;99.90;;;;;;6254699;22;19911;-78
2022/09/16 14:58:50;;;;;;;;;;;13.30;99.90;;;;;;6228883;22;19917;-77
2022/09/16 15:01:22;;;;;;;;;;;13.20;99.90;;;;;;6254433;22;19962;-79
2022/09/16 15:04:11;;;;;;;;;;;13.00;99.90;;;;;;6254130;22;19990;-77
2022/09/16 15:06:44;;;;;;;;;;;12.90;99.90;;;;;;6253965;22;19911;-80
2022/09/16 15:09:14;;;;;;;;;;;12.90;99.90;;;;;;6253872;22;20233;-80
2022/09/16 15:11:45;;;;;;;;;;;12.90;99.90;;;;;;6254184;22;19910;-78
2022/09/16 15:14:11;;;;;;;;;;;13.00;99.90;;;;;;6254200;22;19922;-81
2022/09/16 15:16:40;;;;;;;;;;;13.10;99.90;;;;;;6254394;22;19915;-81
2022/09/16 15:19:06;;;;;;;;;;;13.20;99.90;;;;;;6253875;22;19911;-81
2022/09/16 15:21:33;;;;;;;;;;;13.20;99.90;;;;;;6254099;22;19942;-79
2022/09/16 15:27:25;;;;;;;;;;;13.10;99.90;;;;;;6279562;22;19954;-79
2022/09/16 15:29:59;;;;;;;;;;;13.00;99.90;;;;;;6279557;22;20229;-73
2022/09/16 15:32:27;;;;;;;;;;;12.90;99.90;;;;;;6254117;22;19914;-75
2022/09/16 15:35:11;;;;;;;;;;;12.90;99.90;;;;;;6254052;22;19911;-71
2022/09/16 15:37:37;;;;;;;;;;;12.80;99.90;;;;;;6306514;22;20206;-77
2022/09/16 15:40:18;;;;;;;;;;;12.80;99.90;;;;;;6278301;22;19989;-72
2022/09/16 15:42:44;;;;;;;;;;;12.80;99.90;;;;;;6279174;22;19915;-78
2022/09/16 15:45:16;;;;;;;;;;;12.50;99.90;;;;;;6254181;22;19917;-78
2022/09/16 15:47:58;;;;;;;;;;;12.60;99.90;;;;;;6254186;22;20344;-81
2022/09/16 15:50:27;;;;;;;;;;;12.60;99.90;;;;;;6306180;22;20318;-81
2022/09/16 15:53:09;;;;;;;;;;;12.60;99.90;;;;;;6254285;22;19946;-80
2022/09/16 15:55:34;;;;;;;;;;;12.60;99.90;;;;;;6279484;22;19911;-77
2022/09/16 15:58:21;;;;;;;;;;;12.70;99.90;;;;;;6254304;22;20309;-76